createdAt,value
2018-02-20T00:00:31.861Z,-0.15
2018-02-20T00:02:59.434Z,-0.17
2018-02-20T00:05:27.063Z,-0.20
2018-02-20T00:07:54.652Z,-0.13
2018-02-20T00:10:22.218Z,-0.08
2018-02-20T00:12:50.124Z,-0.07
2018-02-20T00:15:17.664Z,-0.09
2018-02-20T00:17:45.251Z,-0.17
2018-02-20T00:20:12.865Z,-0.28
2018-02-20T00:22:40.429Z,-0.29
2018-02-20T00:25:08.058Z,-0.24
2018-02-20T00:27:35.613Z,-0.21
2018-02-20T00:30:03.201Z,-0.22
2018-02-20T00:32:30.758Z,-0.21
2018-02-20T00:34:58.290Z,-0.24
2018-02-20T00:37:25.900Z,-0.25
2018-02-20T00:39:53.444Z,-0.25
2018-02-20T00:42:20.937Z,-0.31
2018-02-20T00:44:48.480Z,-0.36
2018-02-20T00:47:16.072Z,-0.27
2018-02-20T00:49:43.610Z,-0.26
2018-02-20T00:52:11.135Z,-0.37
2018-02-20T00:54:39.094Z,-0.42
2018-02-20T00:57:06.699Z,-0.43
2018-02-20T00:59:34.249Z,-0.43
2018-02-20T01:02:01.895Z,-0.38
2018-02-20T01:04:29.503Z,-0.39
2018-02-20T01:06:57.093Z,-0.40
2018-02-20T01:09:24.675Z,-0.32
2018-02-20T01:11:52.188Z,-0.31
2018-02-20T01:14:19.714Z,-0.36
2018-02-20T01:16:47.257Z,-0.37
2018-02-20T01:19:14.815Z,-0.33
2018-02-20T01:21:42.406Z,-0.32
2018-02-20T01:24:09.965Z,-0.29
2018-02-20T01:26:37.532Z,-0.27
2018-02-20T01:29:05.108Z,-0.25
2018-02-20T01:31:32.653Z,-0.32
2018-02-20T01:34:00.208Z,-0.28
2018-02-20T01:36:29.854Z,-0.28
2018-02-20T01:38:57.420Z,-0.34
2018-02-20T01:41:24.956Z,-0.43
2018-02-20T01:43:52.575Z,-0.41
2018-02-20T01:46:20.145Z,-0.50
2018-02-20T01:48:47.762Z,-0.54
2018-02-20T01:51:15.322Z,-0.58
2018-02-20T01:53:42.856Z,-0.59
2018-02-20T01:56:10.427Z,-0.64
2018-02-20T01:58:37.962Z,-0.63
2018-02-20T02:01:05.519Z,-0.62
2018-02-20T02:03:33.145Z,-0.66
2018-02-20T02:06:00.673Z,-0.69
2018-02-20T02:08:28.227Z,-0.71
2018-02-20T02:10:55.781Z,-0.71
2018-02-20T02:13:23.396Z,-0.74
2018-02-20T02:15:51.018Z,-0.76
2018-02-20T02:18:19.399Z,-0.79
2018-02-20T02:20:47.011Z,-0.79
2018-02-20T02:23:14.546Z,-0.76
2018-02-20T02:25:42.075Z,-0.77
2018-02-20T02:28:10.109Z,-0.88
2018-02-20T02:30:37.707Z,-0.90
2018-02-20T02:33:05.254Z,-0.98
2018-02-20T02:35:32.909Z,-1.04
2018-02-20T02:38:00.492Z,-1.06
2018-02-20T02:40:28.034Z,-1.06
2018-02-20T02:42:55.600Z,-1.08
2018-02-20T02:45:23.192Z,-1.09
2018-02-20T02:47:50.747Z,-1.09
2018-02-20T02:50:18.349Z,-1.11
2018-02-20T02:52:45.885Z,-1.10
2018-02-20T02:55:13.382Z,-1.07
2018-02-20T02:57:40.968Z,-1.09
2018-02-20T03:00:08.530Z,-1.08
2018-02-20T03:02:36.097Z,-1.04
2018-02-20T03:05:03.646Z,-1.00
2018-02-20T03:07:31.196Z,-0.99
2018-02-20T03:09:58.835Z,-0.94
2018-02-20T03:12:26.362Z,-1.00
2018-02-20T03:14:53.921Z,-0.97
2018-02-20T03:17:21.475Z,-0.98
2018-02-20T03:19:49.026Z,-0.99
2018-02-20T03:22:16.555Z,-1.02
2018-02-20T03:24:44.152Z,-1.07
2018-02-20T03:27:11.748Z,-1.11
2018-02-20T03:29:39.303Z,-1.07
2018-02-20T03:32:06.902Z,-1.04
2018-02-20T03:34:34.477Z,-1.04
2018-02-20T03:37:02.075Z,-1.10
2018-02-20T03:39:29.604Z,-1.13
2018-02-20T03:41:57.194Z,-1.16
2018-02-20T03:44:24.846Z,-1.25
2018-02-20T03:46:52.419Z,-1.28
2018-02-20T03:49:19.979Z,-1.26
2018-02-20T03:51:47.535Z,-1.21
2018-02-20T03:54:15.095Z,-1.26
2018-02-20T03:56:42.673Z,-1.27
2018-02-20T03:59:10.284Z,-1.28
2018-02-20T04:01:37.845Z,-1.28
2018-02-20T04:04:05.448Z,-1.33
2018-02-20T04:06:33.011Z,-1.30
2018-02-20T04:09:00.570Z,-1.30
2018-02-20T04:11:28.149Z,-1.29
2018-02-20T04:13:55.742Z,-1.32
2018-02-20T04:16:23.268Z,-1.28
2018-02-20T04:18:50.832Z,-1.30
2018-02-20T04:21:18.403Z,-1.26
2018-02-20T04:23:45.960Z,-1.31
2018-02-20T04:26:13.539Z,-1.29
2018-02-20T04:28:41.073Z,-1.31
2018-02-20T04:31:08.633Z,-1.32
2018-02-20T04:33:36.249Z,-1.32
2018-02-20T04:36:03.848Z,-1.32
2018-02-20T04:38:31.420Z,-1.35
2018-02-20T04:40:58.990Z,-1.30
2018-02-20T04:43:26.608Z,-1.34
2018-02-20T04:45:54.177Z,-1.32
2018-02-20T04:48:21.759Z,-1.31
2018-02-20T04:50:49.298Z,-1.29
2018-02-20T04:53:16.826Z,-1.25
2018-02-20T04:55:44.456Z,-1.23
2018-02-20T04:58:12.010Z,-1.20
2018-02-20T05:00:39.679Z,-1.20
2018-02-20T05:03:07.219Z,-1.13
2018-02-20T05:05:34.754Z,-1.14
2018-02-20T05:08:02.312Z,-1.08
2018-02-20T05:10:29.883Z,-1.08
2018-02-20T05:12:57.464Z,-1.07
2018-02-20T05:15:24.997Z,-1.01
2018-02-20T05:17:52.566Z,-0.97
2018-02-20T05:20:20.105Z,-1.01
2018-02-20T05:22:47.689Z,-1.02
2018-02-20T05:25:15.249Z,-1.02
2018-02-20T05:27:42.850Z,-1.03
2018-02-20T05:30:10.424Z,-1.03
2018-02-20T05:32:38.009Z,-1.04
2018-02-20T05:35:05.578Z,-1.11
2018-02-20T05:37:33.153Z,-1.04
2018-02-20T05:40:00.692Z,-1.03
2018-02-20T05:42:28.221Z,-1.06
2018-02-20T05:44:55.742Z,-1.07
2018-02-20T05:47:23.237Z,-0.99
2018-02-20T05:49:50.767Z,-0.96
2018-02-20T05:52:18.341Z,-0.98
2018-02-20T05:54:45.896Z,-0.97
2018-02-20T05:57:13.540Z,-0.99
2018-02-20T05:59:41.101Z,-0.98
2018-02-20T06:02:08.638Z,-1.00
2018-02-20T06:04:36.159Z,-1.00
2018-02-20T06:07:03.744Z,-1.01
2018-02-20T06:09:31.286Z,-0.97
2018-02-20T06:11:58.894Z,-0.94
2018-02-20T06:14:26.500Z,-0.96
2018-02-20T06:16:54.063Z,-0.97
2018-02-20T06:19:21.619Z,-0.96
2018-02-20T06:21:49.190Z,-0.93
2018-02-20T06:24:16.749Z,-0.97
2018-02-20T06:26:44.336Z,-0.95
2018-02-20T06:29:11.900Z,-0.95
2018-02-20T06:31:39.538Z,-0.98
2018-02-20T06:34:07.124Z,-0.92
2018-02-20T06:36:34.728Z,-0.93
2018-02-20T06:39:02.295Z,-0.85
2018-02-20T06:41:29.866Z,-0.84
2018-02-20T06:43:57.428Z,-0.86
2018-02-20T06:46:24.989Z,-0.80
2018-02-20T06:48:52.552Z,-0.75
2018-02-20T06:51:20.078Z,-0.74
2018-02-20T06:53:47.685Z,-0.73
2018-02-20T06:56:15.280Z,-0.72
2018-02-20T06:58:42.847Z,-0.71
2018-02-20T07:01:10.386Z,-0.71
2018-02-20T07:03:37.942Z,-0.71
2018-02-20T07:06:05.501Z,-0.68
2018-02-20T07:08:33.017Z,-0.70
2018-02-20T07:11:00.544Z,-0.65
2018-02-20T07:13:28.110Z,-0.68
2018-02-20T07:15:55.653Z,-0.63
2018-02-20T07:18:23.180Z,-0.64
2018-02-20T07:20:50.746Z,-0.66
2018-02-20T07:23:18.442Z,-0.64
2018-02-20T07:25:45.994Z,-0.65
2018-02-20T07:28:13.551Z,-0.56
2018-02-20T07:30:41.083Z,-0.65
2018-02-20T07:33:08.631Z,-0.60
2018-02-20T07:35:36.188Z,-0.56
2018-02-20T07:38:03.794Z,-0.57
2018-02-20T07:40:31.348Z,-0.57
2018-02-20T07:42:58.907Z,-0.58
2018-02-20T07:45:26.464Z,-0.57
2018-02-20T07:47:54.031Z,-0.50
2018-02-20T07:50:21.579Z,-0.41
2018-02-20T07:52:49.162Z,-0.37
2018-02-20T07:55:16.772Z,-0.34
2018-02-20T07:57:44.369Z,-0.36
2018-02-20T08:00:11.874Z,-0.30
2018-02-20T08:02:39.429Z,-0.09
2018-02-20T08:05:07.005Z,0.04
2018-02-20T08:07:34.581Z,0.25
2018-02-20T08:10:02.139Z,0.17
2018-02-20T08:12:29.731Z,0.30
2018-02-20T08:14:57.351Z,0.57
2018-02-20T08:17:24.919Z,0.53
2018-02-20T08:19:52.502Z,0.85
2018-02-20T08:22:20.039Z,1.06
2018-02-20T08:24:47.602Z,0.84
2018-02-20T08:27:15.125Z,1.27
2018-02-20T08:29:42.674Z,1.82
2018-02-20T08:32:10.202Z,2.37
2018-02-20T08:34:37.737Z,1.95
2018-02-20T08:37:05.285Z,1.81
2018-02-20T08:39:32.840Z,2.75
2018-02-20T08:42:00.468Z,2.51
2018-02-20T08:44:28.058Z,1.64
2018-02-20T08:46:55.595Z,1.90
2018-02-20T08:49:23.169Z,2.30
2018-02-20T08:51:50.711Z,2.52
2018-02-20T08:54:18.251Z,3.52
2018-02-20T08:56:45.755Z,2.67
2018-02-20T08:59:13.315Z,2.74
2018-02-20T09:01:40.841Z,2.20
2018-02-20T09:04:08.365Z,2.80
2018-02-20T09:06:35.969Z,3.26
2018-02-20T09:09:03.526Z,3.18
2018-02-20T09:11:31.048Z,2.92
2018-02-20T09:13:58.591Z,2.76
2018-02-20T09:16:26.135Z,3.77
2018-02-20T09:18:53.688Z,4.96
2018-02-20T09:21:21.257Z,2.86
2018-02-20T09:23:48.793Z,2.84
2018-02-20T09:26:16.398Z,2.94
2018-02-20T09:28:43.921Z,3.42
2018-02-20T09:31:11.468Z,3.95
2018-02-20T09:33:38.965Z,3.70
2018-02-20T09:36:06.545Z,3.14
2018-02-20T09:38:34.085Z,3.32
2018-02-20T09:41:01.619Z,3.33
2018-02-20T09:43:29.140Z,3.52
2018-02-20T09:45:56.787Z,4.15
2018-02-20T09:48:24.332Z,4.42
2018-02-20T09:50:51.925Z,3.11
2018-02-20T09:53:19.471Z,3.88
2018-02-20T09:55:47.013Z,4.03
2018-02-20T09:58:14.586Z,3.71
2018-02-20T10:00:42.140Z,3.20
2018-02-20T10:03:09.696Z,4.31
2018-02-20T10:05:37.237Z,4.95
2018-02-20T10:08:04.795Z,3.52
2018-02-20T10:10:32.329Z,2.97
2018-02-20T10:12:59.891Z,3.06
2018-02-20T10:15:27.559Z,3.12
2018-02-20T10:17:55.072Z,2.92
2018-02-20T10:20:22.683Z,3.11
2018-02-20T10:22:50.240Z,3.58
2018-02-20T10:25:17.740Z,3.91
2018-02-20T10:27:45.309Z,3.26
2018-02-20T10:30:12.906Z,2.85
2018-02-20T10:32:40.519Z,2.76
2018-02-20T10:35:08.091Z,2.82
2018-02-20T10:37:35.668Z,2.76
2018-02-20T10:40:03.232Z,2.68
2018-02-20T10:42:30.774Z,2.74
2018-02-20T10:44:58.324Z,2.78
2018-02-20T10:47:25.858Z,2.79
2018-02-20T10:49:53.419Z,2.60
2018-02-20T10:52:20.972Z,2.63
2018-02-20T10:54:48.539Z,2.69
2018-02-20T10:57:16.060Z,2.45
2018-02-20T10:59:43.609Z,2.99
2018-02-20T11:02:11.151Z,3.04
2018-02-20T11:04:38.705Z,3.09
2018-02-20T11:07:06.267Z,3.40
2018-02-20T11:09:33.811Z,3.35
2018-02-20T11:12:01.547Z,3.32
2018-02-20T11:14:29.068Z,2.86
2018-02-20T11:16:56.580Z,2.80
2018-02-20T11:19:24.151Z,2.61
2018-02-20T11:21:51.673Z,2.85
2018-02-20T11:24:19.201Z,2.91
2018-02-20T11:26:46.752Z,3.06
2018-02-20T11:29:14.326Z,2.96
2018-02-20T11:31:41.968Z,3.26
2018-02-20T11:34:09.492Z,3.35
2018-02-20T11:36:37.008Z,3.20
2018-02-20T11:39:04.693Z,3.23
2018-02-20T11:41:32.214Z,3.37
2018-02-20T11:43:59.724Z,3.19
2018-02-20T11:46:27.250Z,3.34
2018-02-20T11:48:54.792Z,3.15
2018-02-20T11:51:22.329Z,3.30
2018-02-20T11:53:49.976Z,2.96
2018-02-20T11:56:17.542Z,3.01
2018-02-20T11:58:45.079Z,2.72
2018-02-20T12:01:12.650Z,3.03
2018-02-20T12:03:40.193Z,2.83
2018-02-20T12:06:07.853Z,2.91
2018-02-20T12:08:35.441Z,2.69
2018-02-20T12:11:03.010Z,2.93
2018-02-20T12:13:30.546Z,3.05
2018-02-20T12:15:58.095Z,2.99
2018-02-20T12:18:25.658Z,2.88
2018-02-20T12:20:53.238Z,3.13
2018-02-20T12:23:20.816Z,3.23
2018-02-20T12:25:48.334Z,3.18
2018-02-20T12:28:15.978Z,3.30
2018-02-20T12:30:43.550Z,3.45
2018-02-20T12:33:11.118Z,3.66
2018-02-20T12:35:38.684Z,3.68
2018-02-20T12:38:06.228Z,3.77
2018-02-20T12:40:33.769Z,3.71
2018-02-20T12:43:01.343Z,3.45
2018-02-20T12:45:28.861Z,3.22
2018-02-20T12:47:56.438Z,3.30
2018-02-20T12:50:23.962Z,3.55
2018-02-20T12:52:51.508Z,3.62
2018-02-20T12:55:19.086Z,3.53
2018-02-20T12:57:46.645Z,3.57
2018-02-20T13:00:14.197Z,3.73
2018-02-20T13:02:41.738Z,3.58
2018-02-20T13:05:09.307Z,3.55
2018-02-20T13:07:36.890Z,3.40
2018-02-20T13:10:04.449Z,3.47
2018-02-20T13:12:32.033Z,3.15
2018-02-20T13:14:59.637Z,3.28
2018-02-20T13:17:27.154Z,3.36
2018-02-20T13:19:54.735Z,3.15
2018-02-20T13:22:22.295Z,3.41
2018-02-20T13:24:49.904Z,3.05
2018-02-20T13:27:17.433Z,3.17
2018-02-20T13:29:44.978Z,3.16
2018-02-20T13:32:12.541Z,3.16
2018-02-20T13:34:40.115Z,3.14
2018-02-20T13:37:07.672Z,3.21
2018-02-20T13:39:35.221Z,3.27
2018-02-20T13:42:02.749Z,3.20
2018-02-20T13:44:30.362Z,3.20
2018-02-20T13:46:58.003Z,3.20
2018-02-20T13:49:25.543Z,2.93
2018-02-20T13:51:53.071Z,3.15
2018-02-20T13:54:20.634Z,3.20
2018-02-20T13:56:48.165Z,3.12
2018-02-20T13:59:15.710Z,3.26
2018-02-20T14:01:43.262Z,3.18
2018-02-20T14:04:11.621Z,3.22
2018-02-20T14:06:39.215Z,3.31
2018-02-20T14:09:06.737Z,3.25
2018-02-20T14:11:34.305Z,3.29
2018-02-20T14:14:01.841Z,3.15
2018-02-20T14:16:29.396Z,3.32
2018-02-20T14:18:56.914Z,3.27
2018-02-20T14:21:24.466Z,3.23
2018-02-20T14:23:52.003Z,3.35
2018-02-20T14:26:19.510Z,3.49
2018-02-20T14:28:47.033Z,3.38
2018-02-20T14:31:16.590Z,3.31
2018-02-20T14:33:44.122Z,3.28
2018-02-20T14:36:11.661Z,3.26
2018-02-20T14:38:39.290Z,3.30
2018-02-20T14:41:06.847Z,3.42
2018-02-20T14:43:34.398Z,3.33
2018-02-20T14:46:01.964Z,3.27
2018-02-20T14:48:29.583Z,3.14
2018-02-20T14:50:57.237Z,3.18
2018-02-20T14:53:24.756Z,3.28
2018-02-20T14:55:52.396Z,3.27
2018-02-20T14:58:20.193Z,3.20
2018-02-20T15:00:48.897Z,3.23
2018-02-20T15:03:16.720Z,3.27
2018-02-20T15:05:44.473Z,3.17
2018-02-20T15:08:12.254Z,3.10
2018-02-20T15:10:39.919Z,3.04
2018-02-20T15:13:07.791Z,3.05
2018-02-20T15:15:35.692Z,3.09
2018-02-20T15:18:03.537Z,3.19
2018-02-20T15:20:31.442Z,3.13
2018-02-20T15:22:59.266Z,3.11
2018-02-20T15:25:27.079Z,3.11
2018-02-20T15:27:54.944Z,3.08
2018-02-20T15:30:22.840Z,3.15
2018-02-20T15:32:50.607Z,3.18
2018-02-20T15:35:18.483Z,3.10
2018-02-20T15:37:46.299Z,3.17
2018-02-20T15:40:14.026Z,3.21
2018-02-20T15:42:41.793Z,3.08
2018-02-20T15:45:09.593Z,3.03
2018-02-20T15:47:37.481Z,2.98
2018-02-20T15:50:05.307Z,2.95
2018-02-20T15:52:33.070Z,2.94
2018-02-20T15:55:00.648Z,2.81
2018-02-20T15:57:28.210Z,2.85
2018-02-20T15:59:55.768Z,2.80
2018-02-20T16:02:23.312Z,2.74
2018-02-20T16:04:50.862Z,2.74
2018-02-20T16:07:18.384Z,2.66
2018-02-20T16:09:45.886Z,2.63
2018-02-20T16:12:13.413Z,2.55
2018-02-20T16:14:40.957Z,2.45
2018-02-20T16:17:08.453Z,2.45
2018-02-20T16:19:35.977Z,2.43
2018-02-20T16:22:03.627Z,2.37
2018-02-20T16:24:31.146Z,2.26
2018-02-20T16:26:58.691Z,2.24
2018-02-20T16:29:26.266Z,2.19
2018-02-20T16:31:53.793Z,2.10
2018-02-20T16:34:21.349Z,2.10
2018-02-20T16:36:48.933Z,2.00
2018-02-20T16:39:16.600Z,2.01
2018-02-20T16:41:44.160Z,1.94
2018-02-20T16:44:11.709Z,1.88
2018-02-20T16:46:39.332Z,1.83
2018-02-20T16:49:06.909Z,1.79
2018-02-20T16:51:34.446Z,1.75
2018-02-20T16:54:02.008Z,1.73
2018-02-20T16:56:29.662Z,1.69
2018-02-20T16:58:57.276Z,1.63
2018-02-20T17:01:24.823Z,1.59
2018-02-20T17:03:52.385Z,1.54
2018-02-20T17:06:20.003Z,1.67
2018-02-20T17:08:47.560Z,1.59
2018-02-20T17:11:15.082Z,1.48
2018-02-20T17:13:42.655Z,1.52
2018-02-20T17:16:10.207Z,1.40
2018-02-20T17:18:37.801Z,1.34
2018-02-20T17:21:05.355Z,1.29
2018-02-20T17:23:33.101Z,1.24
2018-02-20T17:26:00.629Z,1.21
2018-02-20T17:28:28.140Z,1.22
2018-02-20T17:30:55.677Z,1.20
2018-02-20T17:33:23.199Z,1.11
2018-02-20T17:35:50.738Z,1.04
2018-02-20T17:38:18.336Z,1.02
2018-02-20T17:40:45.882Z,1.00
2018-02-20T17:43:13.442Z,0.98
2018-02-20T17:45:41.136Z,0.96
2018-02-20T17:48:08.749Z,0.97
2018-02-20T17:50:36.709Z,0.90
2018-02-20T17:53:04.272Z,0.89
2018-02-20T17:55:31.919Z,0.89
2018-02-20T17:57:59.492Z,0.85
2018-02-20T18:00:27.066Z,0.80
2018-02-20T18:02:54.672Z,0.78
2018-02-20T18:05:22.231Z,0.74
2018-02-20T18:07:49.775Z,0.72
2018-02-20T18:10:17.295Z,0.74
2018-02-20T18:12:44.859Z,0.71
2018-02-20T18:15:12.478Z,0.67
2018-02-20T18:17:40.026Z,0.67
2018-02-20T18:20:07.644Z,0.66
2018-02-20T18:22:35.243Z,0.64
2018-02-20T18:25:02.804Z,0.63
2018-02-20T18:27:30.361Z,0.61
2018-02-20T18:29:57.919Z,0.61
2018-02-20T18:32:27.287Z,0.64
2018-02-20T18:34:54.822Z,0.69
2018-02-20T18:37:22.388Z,0.64
2018-02-20T18:39:49.944Z,0.59
2018-02-20T18:42:17.504Z,0.54
2018-02-20T18:44:45.120Z,0.52
2018-02-20T18:47:12.723Z,0.49
2018-02-20T18:49:40.428Z,0.48
2018-02-20T18:52:07.993Z,0.47
2018-02-20T18:54:35.552Z,0.45
2018-02-20T18:57:03.110Z,0.40
2018-02-20T18:59:30.746Z,0.40
2018-02-20T19:01:58.279Z,0.38
2018-02-20T19:04:25.805Z,0.37
2018-02-20T19:06:53.349Z,0.34
2018-02-20T19:09:20.916Z,0.39
2018-02-20T19:11:48.509Z,0.37
2018-02-20T19:14:16.176Z,0.30
2018-02-20T19:16:43.759Z,0.27
2018-02-20T19:19:11.326Z,0.28
2018-02-20T19:21:38.877Z,0.29
2018-02-20T19:24:06.404Z,0.27
2018-02-20T19:26:33.941Z,0.28
2018-02-20T19:29:01.479Z,0.27
2018-02-20T19:31:29.048Z,0.21
2018-02-20T19:33:56.583Z,0.27
2018-02-20T19:36:24.132Z,0.24
2018-02-20T19:38:51.772Z,0.23
2018-02-20T19:41:19.321Z,0.21
2018-02-20T19:43:46.914Z,0.19
2018-02-20T19:46:14.590Z,0.17
2018-02-20T19:48:42.120Z,0.12
2018-02-20T19:51:09.676Z,0.10
2018-02-20T19:53:37.230Z,0.09
2018-02-20T19:56:04.786Z,0.03
2018-02-20T19:58:32.486Z,0.00
2018-02-20T20:01:00.022Z,-0.01
2018-02-20T20:03:27.588Z,-0.03
2018-02-20T20:05:55.284Z,-0.07
2018-02-20T20:08:22.797Z,-0.02
2018-02-20T20:10:50.337Z,-0.05
2018-02-20T20:13:17.864Z,-0.06
2018-02-20T20:15:45.422Z,-0.07
2018-02-20T20:18:12.986Z,-0.09
2018-02-20T20:20:47.935Z,-0.13
2018-02-20T20:23:08.203Z,-0.13
2018-02-20T20:25:36.374Z,-0.15
2018-02-20T20:28:03.987Z,-0.17
2018-02-20T20:30:31.562Z,-0.22
2018-02-20T20:32:59.069Z,-0.23
2018-02-20T20:35:26.680Z,-0.27
2018-02-20T20:37:54.207Z,-0.26
2018-02-20T20:40:21.775Z,-0.30
2018-02-20T20:42:49.488Z,-0.26
2018-02-20T20:45:17.051Z,-0.32
2018-02-20T20:47:44.795Z,-0.33
2018-02-20T20:50:12.588Z,-0.37
2018-02-20T20:52:40.341Z,-0.31
2018-02-20T20:55:07.905Z,-0.40
2018-02-20T20:57:35.993Z,-0.39
2018-02-20T21:00:03.640Z,-0.38
2018-02-20T21:02:31.366Z,-0.43
2018-02-20T21:04:59.867Z,-0.39
2018-02-20T21:07:27.405Z,-0.39
2018-02-20T21:09:54.974Z,-0.40
2018-02-20T21:12:22.993Z,-0.39
2018-02-20T21:14:50.771Z,-0.40
2018-02-20T21:17:18.504Z,-0.45
2018-02-20T21:19:46.113Z,-0.48
2018-02-20T21:22:13.696Z,-0.48
2018-02-20T21:24:42.356Z,-0.54
2018-02-20T21:27:09.967Z,-0.53
2018-02-20T21:29:37.654Z,-0.63
2018-02-20T21:32:05.371Z,-0.65
2018-02-20T21:34:32.965Z,-0.70
2018-02-20T21:37:00.566Z,-0.70
2018-02-20T21:39:28.149Z,-0.72
2018-02-20T21:41:55.861Z,-0.73
2018-02-20T21:44:23.485Z,-0.78
2018-02-20T21:46:51.430Z,-0.80
2018-02-20T21:49:19.406Z,-0.84
2018-02-20T21:51:46.982Z,-0.86
2018-02-20T21:54:14.641Z,-0.88
2018-02-20T21:56:42.411Z,-0.92
2018-02-20T21:59:09.970Z,-0.97
2018-02-20T22:01:37.579Z,-0.95
2018-02-20T22:04:05.109Z,-0.97
2018-02-20T22:06:32.620Z,-0.98
2018-02-20T22:09:00.213Z,-0.93
2018-02-20T22:11:27.739Z,-0.95
2018-02-20T22:13:55.431Z,-0.96
2018-02-20T22:16:23.536Z,-0.94
2018-02-20T22:18:51.093Z,-0.91
2018-02-20T22:21:18.816Z,-0.97
2018-02-20T22:23:46.429Z,-0.97
2018-02-20T22:26:14.060Z,-0.95
2018-02-20T22:28:41.669Z,-0.99
2018-02-20T22:31:09.211Z,-0.96
2018-02-20T22:33:36.876Z,-0.97
2018-02-20T22:36:04.431Z,-0.95
2018-02-20T22:38:31.987Z,-1.02
2018-02-20T22:40:59.551Z,-1.01
2018-02-20T22:43:27.118Z,-1.01
2018-02-20T22:45:54.665Z,-1.05
2018-02-20T22:48:22.225Z,-1.06
2018-02-20T22:50:49.794Z,-1.04
2018-02-20T22:53:17.456Z,-1.04
2018-02-20T22:55:45.003Z,-1.07
2018-02-20T22:58:12.580Z,-1.09
2018-02-20T23:00:40.122Z,-1.11
2018-02-20T23:03:07.673Z,-1.12
2018-02-20T23:05:35.346Z,-1.15
2018-02-20T23:08:02.919Z,-1.08
2018-02-20T23:10:30.896Z,-1.11
2018-02-20T23:12:58.505Z,-1.18
2018-02-20T23:15:26.061Z,-1.21
2018-02-20T23:17:53.610Z,-1.25
2018-02-20T23:20:21.245Z,-1.28
2018-02-20T23:22:48.904Z,-1.32
2018-02-20T23:25:16.446Z,-1.33
2018-02-20T23:27:43.987Z,-1.40
2018-02-20T23:30:11.581Z,-1.41
2018-02-20T23:32:39.147Z,-1.40
2018-02-20T23:35:06.776Z,-1.40
2018-02-20T23:37:34.370Z,-1.41
2018-02-20T23:40:02.070Z,-1.43
2018-02-20T23:42:29.791Z,-1.42
2018-02-20T23:44:57.384Z,-1.39
2018-02-20T23:47:24.975Z,-1.31
2018-02-20T23:49:52.554Z,-1.34
2018-02-20T23:52:22.225Z,-1.38
2018-02-20T23:54:49.983Z,-1.41
2018-02-20T23:57:17.563Z,-1.41
2018-02-20T23:59:51.982Z,-1.43
